createdAt,value
2023-06-17T00:03:05.975Z,66.76
2023-06-17T00:08:07.037Z,67.07
2023-06-17T00:13:08.076Z,66.46
2023-06-17T00:18:09.148Z,65.82
2023-06-17T00:23:10.209Z,65.01
2023-06-17T00:28:12.322Z,65.82
2023-06-17T00:33:12.360Z,66.36
2023-06-17T00:38:11.504Z,67.47
2023-06-17T00:43:12.560Z,67.80
2023-06-17T00:48:13.722Z,67.80
2023-06-17T00:53:14.771Z,67.10
2023-06-17T00:58:17.829Z,66.59
2023-06-17T01:03:17.074Z,65.58
2023-06-17T01:08:19.092Z,65.58
2023-06-17T01:13:18.145Z,65.38
2023-06-17T01:18:19.354Z,66.05
2023-06-17T01:23:22.701Z,66.25
2023-06-17T01:28:22.744Z,67.19
2023-06-17T01:33:21.774Z,67.40
2023-06-17T01:38:24.820Z,67.10
2023-06-17T01:43:23.844Z,66.39
2023-06-17T01:48:25.027Z,66.29
2023-06-17T01:53:26.112Z,66.19
2023-06-17T01:58:27.094Z,65.15
2023-06-17T02:03:29.237Z,65.28
2023-06-17T02:08:28.318Z,65.99
2023-06-17T02:13:29.414Z,65.58
2023-06-17T02:18:30.459Z,66.99
2023-06-17T02:23:32.490Z,66.72
2023-06-17T02:28:32.575Z,66.93
2023-06-17T02:33:31.667Z,66.93
2023-06-17T02:38:32.801Z,67.33
2023-06-17T02:43:33.908Z,68.27
2023-06-17T02:48:34.963Z,68.98
2023-06-17T02:53:36.014Z,69.18
2023-06-17T02:58:37.121Z,68.87
2023-06-17T03:03:39.113Z,69.01
2023-06-17T03:08:38.203Z,69.01
2023-06-17T03:13:39.250Z,69.21
2023-06-17T03:18:41.389Z,69.24
2023-06-17T03:23:41.375Z,68.33
2023-06-17T03:28:41.441Z,67.93
2023-06-17T03:33:41.448Z,68.13
2023-06-17T03:38:42.490Z,68.91
2023-06-17T03:43:42.512Z,68.91
2023-06-17T03:48:41.613Z,68.30
2023-06-17T03:53:42.672Z,67.56
2023-06-17T03:58:43.732Z,66.82
2023-06-17T04:03:43.862Z,65.88
2023-06-17T04:08:44.940Z,65.48
2023-06-17T04:13:46.017Z,62.74
2023-06-17T04:18:48.133Z,60.91
2023-06-17T04:23:47.171Z,59.34
2023-06-17T04:28:49.233Z,58.94
2023-06-17T04:33:49.368Z,60.88
2023-06-17T04:38:48.413Z,62.15
2023-06-17T04:43:50.504Z,63.54
2023-06-17T04:48:49.563Z,64.38
2023-06-17T04:53:50.667Z,65.22
2023-06-17T04:58:52.725Z,64.48
2023-06-17T05:03:51.796Z,63.45
2023-06-17T05:08:52.926Z,62.41
2023-06-17T05:13:53.929Z,62.71
2023-06-17T05:18:55.967Z,62.71
2023-06-17T05:23:55.062Z,63.39
2023-06-17T05:28:57.084Z,62.58
2023-06-17T05:33:58.126Z,62.65
2023-06-17T05:38:57.216Z,62.75
2023-06-17T05:43:57.258Z,62.02
2023-06-17T05:48:58.296Z,61.29
2023-06-17T05:53:59.369Z,61.08
2023-06-17T05:59:00.405Z,60.38
2023-06-17T06:04:02.504Z,61.02
2023-06-17T06:09:01.604Z,60.62
2023-06-17T06:14:02.694Z,61.52
2023-06-17T06:19:04.777Z,61.17
2023-06-17T06:24:04.927Z,59.33
2023-06-17T06:29:03.931Z,58.43
2023-06-17T06:34:05.985Z,59.91
2023-06-17T06:39:05.105Z,59.28
2023-06-17T06:44:07.143Z,59.48
2023-06-17T06:49:06.191Z,56.42
2023-06-17T06:54:08.258Z,57.92
2023-06-17T06:59:07.350Z,58.22
2023-06-17T07:04:09.413Z,57.39
2023-06-17T07:09:08.531Z,56.64
2023-06-17T07:14:09.603Z,55.71
2023-06-17T07:19:10.705Z,56.61
2023-06-17T07:24:11.813Z,56.16
2023-06-17T07:29:13.889Z,56.61
2023-06-17T07:34:13.942Z,55.76
2023-06-17T07:39:14.995Z,53.89
2023-06-17T07:44:15.041Z,55.29
2023-06-17T07:49:14.091Z,54.64
2023-06-17T07:54:16.128Z,53.19
2023-06-17T07:59:15.185Z,53.14
2023-06-17T08:04:17.267Z,52.19
2023-06-17T08:09:17.267Z,51.10
2023-06-17T08:14:18.319Z,50.50
2023-06-17T08:19:17.380Z,50.08
2023-06-17T08:24:18.445Z,48.92
2023-06-17T08:29:19.497Z,49.21
2023-06-17T08:34:21.583Z,48.20
2023-06-17T08:39:20.647Z,49.57
2023-06-17T08:44:21.701Z,45.87
2023-06-17T08:49:22.755Z,46.05
2023-06-17T08:54:25.818Z,49.84
2023-06-17T08:59:25.896Z,45.36
2023-06-17T09:04:25.937Z,45.34
2023-06-17T09:09:24.981Z,43.53
2023-06-17T09:14:27.247Z,45.34
2023-06-17T09:19:26.313Z,46.44
2023-06-17T09:24:27.399Z,50.68
2023-06-17T09:29:30.519Z,46.49
2023-06-17T09:34:29.543Z,44.83
2023-06-17T09:39:30.608Z,43.52
2023-06-17T09:44:32.666Z,45.94
2023-06-17T09:49:31.702Z,43.85
2023-06-17T09:54:34.787Z,40.84
2023-06-17T09:59:34.859Z,39.43
2023-06-17T10:04:36.514Z,38.80
2023-06-17T10:09:35.188Z,34.15
2023-06-17T10:14:37.258Z,35.11
2023-06-17T10:19:36.326Z,37.71
2023-06-17T10:24:37.485Z,36.98
2023-06-17T10:29:39.636Z,40.62
2023-06-17T10:34:39.706Z,38.42
2023-06-17T10:39:39.779Z,39.43
2023-06-17T10:44:38.855Z,39.34
2023-06-17T10:49:39.915Z,38.15
2023-06-17T10:54:40.981Z,39.08
2023-06-17T10:59:43.086Z,41.08
2023-06-17T11:04:42.266Z,39.26
2023-06-17T11:09:45.298Z,39.16
2023-06-17T11:14:45.421Z,37.60
2023-06-17T11:19:44.445Z,36.15
2023-06-17T11:24:46.605Z,37.26
2023-06-17T11:29:45.613Z,38.15
2023-06-17T11:34:46.650Z,35.63
2023-06-17T11:39:48.722Z,36.82
2023-06-17T11:44:48.776Z,35.95
2023-06-17T11:49:47.823Z,36.01
2023-06-17T11:54:50.328Z,35.30
2023-06-17T11:59:51.368Z,33.69
2023-06-17T12:04:55.316Z,33.70
2023-06-17T12:09:50.361Z,36.01
2023-06-17T12:14:52.388Z,34.89
2023-06-17T12:19:56.341Z,35.30
2023-06-17T12:24:51.392Z,34.74
2023-06-17T12:29:53.438Z,35.65
2023-06-17T12:34:52.507Z,35.34
2023-06-17T12:39:55.561Z,34.89
2023-06-17T12:44:55.639Z,35.27
2023-06-17T12:49:54.689Z,36.06
2023-06-17T12:54:55.733Z,35.58
2023-06-17T12:59:57.810Z,35.70
2023-06-17T13:04:57.861Z,35.60
2023-06-17T13:09:57.889Z,34.97
2023-06-17T13:14:57.953Z,35.98
2023-06-17T13:19:56.118Z,35.07
2023-06-17T13:24:57.234Z,34.88
2023-06-17T13:29:57.922Z,36.06
2023-06-17T13:34:56.957Z,34.36
2023-06-17T13:39:59.059Z,34.86
2023-06-17T13:44:59.099Z,35.93
2023-06-17T13:49:58.494Z,35.45
2023-06-17T13:54:59.520Z,34.74
2023-06-17T14:00:00.627Z,35.66
2023-06-17T14:05:02.677Z,34.76
2023-06-17T14:10:02.753Z,35.91
2023-06-17T14:15:02.821Z,35.47
2023-06-17T14:20:01.850Z,37.30
2023-06-17T14:25:03.903Z,34.25
2023-06-17T14:30:04.937Z,34.05
2023-06-17T14:35:03.987Z,35.05
2023-06-17T14:40:05.010Z,34.63
2023-06-17T14:45:06.222Z,35.31
2023-06-17T14:50:07.477Z,33.25
2023-06-17T14:55:09.493Z,34.72
2023-06-17T15:00:08.516Z,33.72
2023-06-17T15:05:11.565Z,34.81
2023-06-17T15:10:09.608Z,33.61
2023-06-17T15:15:09.635Z,32.84
2023-06-17T15:20:10.691Z,32.90
2023-06-17T15:25:11.734Z,32.03
2023-06-17T15:30:12.821Z,32.31
2023-06-17T15:35:14.854Z,32.67
2023-06-17T15:40:15.577Z,32.20
2023-06-17T15:45:15.632Z,32.20
2023-06-17T15:50:14.692Z,32.98
2023-06-17T15:55:15.747Z,34.33
2023-06-17T16:00:17.878Z,32.87
2023-06-17T16:05:17.883Z,32.34
2023-06-17T16:10:18.201Z,31.56
2023-06-17T16:15:18.396Z,32.31
2023-06-17T16:20:17.429Z,32.67
2023-06-17T16:25:20.459Z,31.09
2023-06-17T16:30:19.702Z,31.87
2023-06-17T16:35:20.882Z,32.20
2023-06-17T16:40:21.210Z,30.88
2023-06-17T16:45:23.476Z,31.16
2023-06-17T16:50:22.791Z,30.58
2023-06-17T16:55:24.910Z,31.60
2023-06-17T17:00:24.961Z,29.71
2023-06-17T17:05:23.993Z,29.10
2023-06-17T17:10:25.043Z,29.45
2023-06-17T17:15:28.080Z,30.18
2023-06-17T17:20:28.134Z,30.80
2023-06-17T17:25:28.206Z,31.79
2023-06-17T17:30:27.236Z,32.79
2023-06-17T17:35:28.283Z,31.60
2023-06-17T17:40:29.327Z,32.23
2023-06-17T17:45:30.427Z,32.13
2023-06-17T17:50:32.505Z,31.67
2023-06-17T17:55:32.560Z,34.53
2023-06-17T18:00:31.645Z,36.82
2023-06-17T18:05:32.753Z,38.73
2023-06-17T18:10:33.819Z,37.19
2023-06-17T18:15:35.042Z,35.96
2023-06-17T18:20:36.203Z,38.75
2023-06-17T18:25:37.296Z,39.56
2023-06-17T18:30:39.375Z,39.97
2023-06-17T18:35:38.430Z,39.93
2023-06-17T18:40:39.543Z,41.55
2023-06-17T18:45:40.588Z,41.28
2023-06-17T18:50:42.754Z,41.82
2023-06-17T18:55:41.826Z,41.53
2023-06-17T19:00:42.970Z,42.43
2023-06-17T19:05:44.056Z,45.78
2023-06-17T19:10:45.186Z,45.50
2023-06-17T19:15:47.273Z,47.02
2023-06-17T19:20:46.318Z,49.83
2023-06-17T19:25:47.514Z,50.47
2023-06-17T19:30:48.596Z,52.97
2023-06-17T19:35:50.690Z,54.79
2023-06-17T19:40:50.756Z,55.21
2023-06-17T19:45:49.945Z,58.06
2023-06-17T19:50:51.083Z,58.39
2023-06-17T19:55:57.025Z,59.59
2023-06-17T20:00:52.491Z,64.03
2023-06-17T20:05:53.593Z,62.95
2023-06-17T20:10:54.812Z,63.89
2023-06-17T20:15:55.974Z,63.71
2023-06-17T20:20:58.001Z,63.87
2023-06-17T20:25:57.075Z,56.05
2023-06-17T20:30:59.157Z,57.86
2023-06-17T20:35:58.225Z,64.54
2023-06-17T20:40:59.474Z,62.46
2023-06-17T20:46:00.680Z,57.81
2023-06-17T20:51:01.735Z,54.25
2023-06-17T20:56:02.942Z,50.57
2023-06-17T21:01:04.015Z,49.90
2023-06-17T21:06:06.226Z,45.95
2023-06-17T21:11:05.228Z,47.15
2023-06-17T21:16:06.378Z,47.05
2023-06-17T21:21:07.380Z,46.13
2023-06-17T21:26:08.548Z,46.33
2023-06-17T21:31:09.676Z,46.65
2023-06-17T21:36:10.829Z,46.07
2023-06-17T21:41:12.023Z,47.17
2023-06-17T21:46:13.250Z,47.49
2023-06-17T21:51:15.432Z,48.32
2023-06-17T21:56:15.561Z,48.79
2023-06-17T22:01:16.848Z,49.62
2023-06-17T22:06:15.895Z,51.67
2023-06-17T22:11:17.127Z,51.17
2023-06-17T22:16:19.318Z,51.77
2023-06-17T22:21:19.378Z,52.39
2023-06-17T22:26:18.476Z,52.09
2023-06-17T22:31:19.596Z,53.42
2023-06-17T22:36:22.664Z,53.95
2023-06-17T22:41:21.807Z,55.40
2023-06-17T22:46:23.953Z,55.03
2023-06-17T22:51:23.094Z,54.00
2023-06-17T22:56:25.182Z,53.67
2023-06-17T23:01:25.342Z,53.45
2023-06-17T23:06:25.342Z,53.34
2023-06-17T23:11:25.521Z,52.42
2023-06-17T23:16:25.643Z,52.32
2023-06-17T23:21:25.787Z,52.72
2023-06-17T23:26:26.928Z,52.01
2023-06-17T23:31:26.056Z,52.92
2023-06-17T23:36:27.156Z,54.00
2023-06-17T23:41:28.203Z,55.16
2023-06-17T23:46:29.269Z,56.59
2023-06-17T23:51:30.347Z,58.25
2023-06-17T23:56:32.422Z,57.45
